Time;durP1;ratioP1;P1;durP2;ratioP2;P2;SDS_P1;SDS_P2;PMS_P1;PMS_P2;Temp;Humidity;BMP_temperature;BMP_pressure;BME280_temperature;BME280_humidity;BME280_pressure;Samples;Min_cycle;Max_cycle;Signal;HPM_P1;HPM_P2
2022/02/22 00:02:11;;;;;;;1.70;1.40;;;25.50;56.80;;;;;;5056066;28;20464;-81
2022/02/22 00:04:38;;;;;;;2.27;1.50;;;25.50;56.70;;;;;;5055880;28;20445;-92
2022/02/22 00:07:07;;;;;;;1.80;1.53;;;25.50;56.80;;;;;;5055855;28;20489;-80
2022/02/22 00:09:33;;;;;;;1.60;1.40;;;25.60;56.60;;;;;;5055935;28;20436;-81
2022/02/22 00:12:00;;;;;;;1.43;1.23;;;25.50;56.60;;;;;;5055722;28;20484;-81
2022/02/22 00:14:27;;;;;;;2.30;1.63;;;25.60;56.80;;;;;;5055699;28;20441;-92
2022/02/22 00:16:55;;;;;;;1.97;1.37;;;25.60;56.80;;;;;;5055811;28;20444;-93
2022/02/22 00:19:22;;;;;;;3.10;1.40;;;25.60;56.70;;;;;;5055827;28;20496;-81
2022/02/22 00:21:49;;;;;;;1.70;1.60;;;25.60;56.70;;;;;;5055748;28;20438;-84
2022/02/22 00:24:17;;;;;;;1.60;1.10;;;25.50;56.60;;;;;;5055108;28;20442;-80
2022/02/22 00:26:44;;;;;;;1.57;1.20;;;25.50;56.60;;;;;;5055598;28;20481;-92
2022/02/22 00:29:11;;;;;;;1.97;1.50;;;25.60;56.70;;;;;;5055492;28;20999;-81
2022/02/22 00:31:38;;;;;;;1.60;1.33;;;25.50;56.60;;;;;;5055682;28;20445;-81
2022/02/22 00:34:05;;;;;;;1.50;1.30;;;25.60;56.70;;;;;;5055552;28;20444;-81
2022/02/22 00:36:33;;;;;;;1.83;1.30;;;25.50;56.60;;;;;;5055475;28;20449;-81
2022/02/22 00:39:01;;;;;;;1.73;1.50;;;25.50;56.60;;;;;;5055333;28;20445;-81
2022/02/22 00:41:30;;;;;;;3.07;1.40;;;25.50;56.60;;;;;;5055541;28;20471;-81
2022/02/22 00:43:57;;;;;;;1.43;1.30;;;25.50;56.60;;;;;;5055333;28;20433;-81
2022/02/22 00:46:24;;;;;;;1.80;1.40;;;25.50;56.60;;;;;;5055124;28;20824;-81
2022/02/22 00:48:51;;;;;;;2.37;1.67;;;25.50;56.60;;;;;;5055496;28;20931;-81
2022/02/22 00:51:17;;;;;;;3.53;1.80;;;25.50;56.60;;;;;;5054995;28;20804;-82
2022/02/22 00:53:44;;;;;;;2.40;1.47;;;25.40;56.50;;;;;;5055033;28;20965;-81
2022/02/22 00:56:11;;;;;;;3.37;1.93;;;25.50;56.60;;;;;;5054845;28;20434;-81
2022/02/22 00:58:39;;;;;;;1.70;1.30;;;25.40;56.50;;;;;;5054679;28;20445;-81
2022/02/22 01:01:06;;;;;;;2.60;1.57;;;25.50;56.70;;;;;;5054885;28;20446;-81
2022/02/22 01:03:33;;;;;;;1.87;1.30;;;25.40;56.60;;;;;;5054942;28;20445;-81
2022/02/22 01:06:00;;;;;;;2.00;1.60;;;25.40;56.50;;;;;;5054901;28;20453;-81
2022/02/22 01:08:26;;;;;;;1.80;1.07;;;25.40;56.50;;;;;;5055021;28;20485;-81
2022/02/22 01:10:53;;;;;;;1.93;1.30;;;25.40;56.60;;;;;;5054473;28;20442;-93
2022/02/22 01:13:21;;;;;;;2.37;1.70;;;25.40;56.50;;;;;;5054786;28;20437;-81
2022/02/22 01:15:50;;;;;;;2.07;1.50;;;25.40;56.60;;;;;;5054616;28;20847;-81
2022/02/22 01:18:17;;;;;;;2.50;1.33;;;25.40;56.50;;;;;;5054512;28;20445;-80
2022/02/22 01:20:44;;;;;;;1.73;1.63;;;25.40;56.60;;;;;;5054599;28;20438;-86
2022/02/22 01:23:11;;;;;;;1.40;1.17;;;25.40;56.40;;;;;;5054263;28;20434;-81
2022/02/22 01:25:38;;;;;;;1.80;1.10;;;25.40;56.60;;;;;;5054556;28;20434;-80
2022/02/22 01:28:05;;;;;;;1.90;1.43;;;25.40;56.60;;;;;;5054307;28;20508;-81
2022/02/22 01:30:31;;;;;;;2.03;1.50;;;25.30;56.50;;;;;;5054329;28;20489;-80
2022/02/22 01:32:59;;;;;;;3.93;1.43;;;25.40;56.50;;;;;;5054309;28;20438;-81
2022/02/22 01:35:27;;;;;;;1.57;1.27;;;25.40;56.60;;;;;;5053652;28;20445;-81
2022/02/22 01:37:53;;;;;;;1.60;1.23;;;25.40;56.60;;;;;;5053985;28;20449;-81
2022/02/22 01:40:21;;;;;;;1.90;1.30;;;25.40;56.60;;;;;;5054090;28;20449;-81
2022/02/22 01:42:47;;;;;;;2.27;1.30;;;25.30;56.50;;;;;;5054103;28;20450;-81
2022/02/22 01:45:15;;;;;;;2.37;1.40;;;25.30;56.60;;;;;;5054066;28;20445;-81
2022/02/22 01:47:42;;;;;;;1.87;1.40;;;25.30;56.50;;;;;;5053671;28;20559;-92
2022/02/22 01:50:10;;;;;;;1.93;1.63;;;25.30;56.50;;;;;;5053957;28;20440;-81
2022/02/22 01:52:37;;;;;;;1.57;1.13;;;25.30;56.60;;;;;;5053765;28;20442;-93
2022/02/22 01:55:04;;;;;;;1.80;1.20;;;25.30;56.50;;;;;;5053774;28;20929;-81
2022/02/22 01:57:31;;;;;;;1.80;1.40;;;25.30;56.50;;;;;;5054095;28;20438;-81
2022/02/22 01:59:58;;;;;;;1.50;1.37;;;25.20;56.50;;;;;;5053918;28;20461;-92
2022/02/22 02:02:25;;;;;;;2.97;1.70;;;25.30;56.50;;;;;;5053903;28;20452;-81
2022/02/22 02:04:52;;;;;;;2.20;1.40;;;25.20;56.50;;;;;;5053556;28;20449;-83
2022/02/22 02:07:20;;;;;;;1.47;1.07;;;25.30;56.70;;;;;;5053723;28;20482;-80
2022/02/22 02:09:47;;;;;;;1.87;1.30;;;25.20;56.60;;;;;;5053512;28;20468;-81
2022/02/22 02:12:14;;;;;;;1.47;1.23;;;25.20;56.60;;;;;;5053375;28;20473;-81
2022/02/22 02:14:41;;;;;;;2.43;1.43;;;25.20;56.60;;;;;;5053316;28;20448;-81
2022/02/22 02:17:07;;;;;;;1.90;1.50;;;25.20;56.60;;;;;;5053429;28;20449;-82
2022/02/22 02:19:34;;;;;;;2.30;1.20;;;25.10;56.60;;;;;;5053143;28;20446;-81
2022/02/22 02:22:02;;;;;;;1.60;1.30;;;25.10;56.70;;;;;;5053587;28;20441;-81
2022/02/22 02:24:29;;;;;;;1.80;1.40;;;25.10;56.70;;;;;;5053743;28;20797;-81
2022/02/22 02:26:57;;;;;;;2.03;1.43;;;25.10;56.60;;;;;;5053467;28;20483;-92
2022/02/22 02:29:25;;;;;;;1.90;1.43;;;25.10;56.60;;;;;;5053184;28;20960;-80
2022/02/22 02:31:54;;;;;;;2.57;1.50;;;25.10;56.60;;;;;;5053448;28;20441;-80
2022/02/22 02:34:23;;;;;;;1.70;1.27;;;25.10;56.60;;;;;;5053405;28;20449;-81
2022/02/22 02:36:50;;;;;;;3.23;1.50;;;25.10;56.60;;;;;;5053201;28;20448;-82
2022/02/22 02:39:18;;;;;;;1.53;1.43;;;25.10;56.70;;;;;;5053427;28;20437;-81
2022/02/22 02:41:46;;;;;;;1.70;1.37;;;25.10;56.60;;;;;;5053297;28;20441;-80
2022/02/22 02:44:15;;;;;;;2.07;1.40;;;25.10;56.60;;;;;;5052842;28;20437;-81
2022/02/22 02:46:42;;;;;;;2.17;1.60;;;25.00;56.60;;;;;;5053707;28;20445;-81
2022/02/22 02:49:10;;;;;;;2.17;1.60;;;25.10;56.60;;;;;;5057121;28;20444;-92
2022/02/22 02:51:37;;;;;;;2.00;1.50;;;25.10;56.50;;;;;;5057336;28;20446;-80
2022/02/22 02:54:06;;;;;;;1.80;1.13;;;25.10;56.60;;;;;;5057161;28;20446;-81
2022/02/22 02:56:34;;;;;;;1.60;1.17;;;25.00;56.60;;;;;;5057257;28;20437;-85
2022/02/22 02:59:02;;;;;;;1.90;1.37;;;25.00;56.60;;;;;;5057214;28;20465;-80
2022/02/22 03:01:31;;;;;;;2.13;1.50;;;25.00;56.60;;;;;;5057125;28;20437;-81
2022/02/22 03:03:58;;;;;;;2.37;1.43;;;25.00;56.70;;;;;;5057031;28;20442;-92
2022/02/22 03:06:25;;;;;;;1.63;1.53;;;25.00;56.70;;;;;;5057235;28;20448;-90
2022/02/22 03:08:52;;;;;;;1.63;1.50;;;25.00;56.60;;;;;;5056912;28;20477;-80
2022/02/22 03:11:19;;;;;;;1.80;1.40;;;25.00;56.60;;;;;;5056716;28;20830;-80
2022/02/22 03:13:47;;;;;;;2.03;1.40;;;25.00;56.60;;;;;;5057068;28;20438;-80
2022/02/22 03:16:14;;;;;;;1.63;1.53;;;25.00;56.60;;;;;;5056974;28;20445;-81
2022/02/22 03:18:42;;;;;;;2.57;1.50;;;25.10;56.60;;;;;;5056900;28;20440;-81
2022/02/22 03:21:09;;;;;;;1.77;1.37;;;25.00;56.60;;;;;;5056777;28;20446;-81
2022/02/22 03:23:36;;;;;;;3.10;1.57;;;25.00;56.60;;;;;;5056601;28;20441;-92
2022/02/22 03:26:03;;;;;;;2.13;1.57;;;24.90;56.70;;;;;;5056849;28;20445;-81
2022/02/22 03:28:31;;;;;;;2.00;1.27;;;24.90;56.60;;;;;;5056485;28;20842;-80
2022/02/22 03:31:01;;;;;;;1.70;1.00;;;24.90;56.60;;;;;;5056801;28;20442;-81
2022/02/22 03:33:27;;;;;;;2.43;1.53;;;25.00;56.70;;;;;;5056592;28;20452;-80
2022/02/22 03:35:54;;;;;;;2.23;1.60;;;24.90;56.70;;;;;;5056549;28;20463;-80
2022/02/22 03:38:21;;;;;;;2.93;1.50;;;24.90;56.70;;;;;;5056491;28;20452;-80
2022/02/22 03:40:48;;;;;;;2.23;1.40;;;24.90;57.20;;;;;;5056604;28;20476;-82
2022/02/22 03:43:15;;;;;;;1.70;1.27;;;24.80;56.60;;;;;;5056328;28;20451;-80
2022/02/22 03:45:42;;;;;;;3.10;1.40;;;24.80;56.60;;;;;;5056281;28;20438;-81
2022/02/22 03:48:10;;;;;;;2.17;1.37;;;24.80;56.60;;;;;;5056124;28;20481;-80
2022/02/22 03:50:37;;;;;;;2.07;1.40;;;24.80;56.60;;;;;;5056160;28;20437;-80
2022/02/22 03:53:04;;;;;;;2.10;1.70;;;24.80;56.70;;;;;;5056004;28;20437;-80
2022/02/22 03:55:31;;;;;;;1.80;1.40;;;24.80;56.60;;;;;;5056116;28;20453;-80
2022/02/22 03:57:57;;;;;;;1.93;1.50;;;24.80;56.70;;;;;;5056056;28;20465;-80
2022/02/22 04:00:26;;;;;;;2.33;1.50;;;24.70;56.60;;;;;;5055373;28;20458;-80
2022/02/22 04:02:53;;;;;;;1.90;1.40;;;24.70;56.60;;;;;;5056063;28;20438;-90
2022/02/22 04:05:22;;;;;;;2.63;1.33;;;24.70;56.60;;;;;;5056064;28;20509;-80
2022/02/22 04:07:50;;;;;;;2.53;1.63;;;24.70;56.60;;;;;;5056190;28;20492;-84
2022/02/22 04:10:16;;;;;;;2.13;1.67;;;24.70;56.70;;;;;;5056068;28;20464;-80
2022/02/22 04:12:44;;;;;;;2.40;1.60;;;24.70;56.80;;;;;;5055679;28;20488;-81
2022/02/22 04:15:11;;;;;;;2.00;1.40;;;24.70;56.60;;;;;;5055904;28;20437;-84
2022/02/22 04:17:38;;;;;;;1.83;1.60;;;24.80;56.70;;;;;;5055824;28;20909;-80
2022/02/22 04:20:07;;;;;;;2.40;1.60;;;24.70;56.60;;;;;;5055603;28;20533;-80
2022/02/22 04:22:35;;;;;;;1.73;1.50;;;24.70;56.60;;;;;;5055564;28;20438;-93
2022/02/22 04:25:03;;;;;;;2.60;1.50;;;24.70;56.70;;;;;;5055708;28;20441;-80
2022/02/22 04:27:30;;;;;;;2.60;1.33;;;24.60;56.80;;;;;;5055401;28;20488;-80
2022/02/22 04:29:57;;;;;;;2.73;1.50;;;24.60;56.70;;;;;;5055396;28;20461;-81
2022/02/22 04:32:24;;;;;;;1.43;1.10;;;24.60;56.80;;;;;;5055602;28;20438;-89
2022/02/22 04:34:50;;;;;;;2.83;1.70;;;24.50;56.70;;;;;;5055411;28;20442;-80
2022/02/22 04:37:18;;;;;;;2.30;1.40;;;24.50;56.70;;;;;;5055432;28;20446;-81
2022/02/22 04:39:47;;;;;;;2.10;1.37;;;24.50;56.70;;;;;;5055432;28;21143;-92
2022/02/22 04:42:15;;;;;;;1.90;1.27;;;24.60;56.80;;;;;;5055184;28;20446;-81
2022/02/22 04:44:43;;;;;;;1.80;1.10;;;24.60;56.70;;;;;;5055069;28;20528;-90
2022/02/22 04:47:11;;;;;;;2.13;1.43;;;24.60;56.70;;;;;;5055216;28;20918;-81
2022/02/22 04:49:37;;;;;;;2.03;1.40;;;24.60;56.70;;;;;;5054851;28;20430;-81
2022/02/22 04:52:05;;;;;;;2.03;1.47;;;24.60;56.70;;;;;;5054934;28;20457;-81
2022/02/22 04:54:32;;;;;;;1.90;1.30;;;24.70;56.70;;;;;;5054906;28;20438;-92
2022/02/22 04:57:01;;;;;;;2.93;1.57;;;24.70;56.60;;;;;;5054764;28;20437;-84
2022/02/22 04:59:27;;;;;;;2.97;1.50;;;24.70;56.60;;;;;;5054358;28;20450;-80
2022/02/22 05:01:54;;;;;;;1.70;1.40;;;24.70;56.60;;;;;;5051889;28;20444;-80
2022/02/22 05:04:21;;;;;;;1.80;1.60;;;24.70;56.50;;;;;;5054966;28;20434;-94
2022/02/22 05:06:48;;;;;;;3.77;1.37;;;24.70;56.70;;;;;;5054817;28;20460;-92
2022/02/22 05:09:15;;;;;;;2.47;1.80;;;24.70;56.40;;;;;;5054739;28;20492;-80
2022/02/22 05:11:41;;;;;;;2.23;1.40;;;24.70;56.40;;;;;;5053649;28;20469;-81
2022/02/22 05:14:09;;;;;;;3.50;1.50;;;24.70;56.50;;;;;;5054724;28;20452;-92
2022/02/22 05:16:37;;;;;;;1.60;1.43;;;24.70;56.60;;;;;;5054596;28;20437;-81
2022/02/22 05:19:04;;;;;;;2.03;1.70;;;24.70;56.50;;;;;;5054492;28;20476;-91
2022/02/22 05:21:31;;;;;;;1.40;1.30;;;24.70;56.50;;;;;;5054456;28;20440;-80
2022/02/22 05:23:58;;;;;;;2.57;1.73;;;24.60;56.40;;;;;;5054429;28;20464;-80
2022/02/22 05:26:25;;;;;;;1.60;1.43;;;24.70;56.50;;;;;;5054380;28;20441;-80
2022/02/22 05:28:52;;;;;;;2.30;1.50;;;24.70;56.40;;;;;;5054240;28;21023;-80
2022/02/22 05:31:20;;;;;;;1.40;1.27;;;24.70;56.40;;;;;;5053869;28;20921;-94
2022/02/22 05:33:47;;;;;;;2.83;1.73;;;24.80;56.50;;;;;;5054235;28;20448;-89
2022/02/22 05:36:14;;;;;;;2.00;1.37;;;24.80;56.50;;;;;;5054691;28;20641;-95
2022/02/22 05:38:41;;;;;;;2.10;1.63;;;24.80;56.50;;;;;;5054612;28;20453;-94
2022/02/22 05:41:08;;;;;;;4.00;1.80;;;24.80;56.50;;;;;;5054878;28;20467;-95
2022/02/22 05:43:34;;;;;;;1.57;1.43;;;24.80;56.60;;;;;;5054148;28;20485;-84
2022/02/22 05:46:01;;;;;;;1.50;1.33;;;24.80;56.50;;;;;;5053941;28;20442;-82
2022/02/22 05:48:29;;;;;;;3.40;1.50;;;24.90;56.30;;;;;;5054031;28;20484;-80
2022/02/22 05:50:56;;;;;;;1.73;1.40;;;24.80;56.50;;;;;;5054050;28;20470;-80
2022/02/22 05:53:23;;;;;;;2.23;1.43;;;25.00;56.50;;;;;;5054359;28;20442;-96
2022/02/22 05:55:49;;;;;;;4.63;1.70;;;24.90;56.50;;;;;;5054369;28;20468;-80
2022/02/22 05:58:16;;;;;;;2.10;1.87;;;25.00;56.50;;;;;;5054133;28;20432;-87
2022/02/22 06:00:43;;;;;;;2.80;1.80;;;25.00;56.50;;;;;;5054216;28;20557;-80
2022/02/22 06:03:10;;;;;;;2.10;1.87;;;25.00;56.50;;;;;;5053680;28;20789;-81
2022/02/22 06:05:38;;;;;;;2.13;1.70;;;25.00;56.50;;;;;;5053839;28;20448;-81
2022/02/22 06:08:05;;;;;;;1.83;1.60;;;25.00;56.50;;;;;;5055519;28;20482;-80
2022/02/22 06:10:32;;;;;;;3.10;1.20;;;25.00;56.50;;;;;;5058174;28;20444;-81
2022/02/22 06:12:59;;;;;;;2.23;1.60;;;24.90;56.50;;;;;;5057176;28;20465;-80
2022/02/22 06:15:25;;;;;;;3.73;2.00;;;25.00;57.10;;;;;;5056918;28;20449;-80
2022/02/22 06:17:52;;;;;;;3.07;1.67;;;24.90;56.50;;;;;;5057186;28;20516;-80
2022/02/22 06:20:19;;;;;;;2.57;1.40;;;24.90;56.60;;;;;;5055517;28;20446;-81
2022/02/22 06:22:47;;;;;;;2.53;1.80;;;24.90;56.60;;;;;;5053918;28;20951;-80
2022/02/22 06:25:14;;;;;;;2.40;1.27;;;25.00;56.70;;;;;;5053709;28;20450;-80
2022/02/22 06:27:49;;;;;;;2.83;1.23;;;25.00;57.30;;;;;;5054162;28;20454;-80
2022/02/22 06:30:16;;;;;;;2.80;1.93;;;25.00;56.60;;;;;;5052988;28;20562;-94
2022/02/22 06:32:43;;;;;;;2.10;1.73;;;24.90;56.60;;;;;;5052540;28;20445;-94
2022/02/22 06:35:10;;;;;;;2.00;1.27;;;25.00;56.60;;;;;;5053205;28;20438;-94
2022/02/22 06:37:37;;;;;;;2.40;1.60;;;25.00;56.60;;;;;;5053639;28;20438;-80
2022/02/22 06:40:07;;;;;;;1.90;1.50;;;25.00;56.60;;;;;;5053420;28;20442;-96
2022/02/22 06:42:34;;;;;;;1.97;1.60;;;25.10;56.60;;;;;;5053557;28;20442;-80
2022/02/22 06:45:01;;;;;;;2.23;1.20;;;25.10;56.60;;;;;;5053557;28;20434;-83
2022/02/22 06:47:28;;;;;;;3.27;1.87;;;25.10;56.60;;;;;;5053419;28;20438;-83
2022/02/22 06:49:54;;;;;;;1.70;1.30;;;25.10;55.50;;;;;;5056658;28;20481;-96
2022/02/22 06:52:21;;;;;;;1.77;1.50;;;25.00;56.30;;;;;;5054081;28;20433;-80
2022/02/22 06:54:48;;;;;;;2.00;1.67;;;25.00;56.60;;;;;;5054892;28;20503;-96
2022/02/22 06:57:17;;;;;;;5.47;1.93;;;25.10;56.60;;;;;;5054502;28;20442;-81
2022/02/22 06:59:45;;;;;;;1.53;1.40;;;25.10;56.50;;;;;;5054750;28;20470;-96
2022/02/22 07:02:12;;;;;;;2.20;1.40;;;25.10;56.50;;;;;;5055598;28;20549;-96
2022/02/22 07:04:39;;;;;;;2.77;2.03;;;25.10;56.40;;;;;;5054153;28;20446;-80
2022/02/22 07:07:06;;;;;;;1.97;1.63;;;25.20;56.40;;;;;;5054127;28;20433;-84
2022/02/22 07:09:34;;;;;;;2.03;1.50;;;25.10;56.40;;;;;;5057555;28;20485;-80
2022/02/22 07:12:01;;;;;;;2.30;1.40;;;25.20;56.50;;;;;;5060411;28;20470;-80
2022/02/22 07:14:28;;;;;;;2.20;1.50;;;25.20;56.40;;;;;;5058691;28;20442;-80
2022/02/22 07:16:57;;;;;;;2.50;1.50;;;25.20;56.40;;;;;;5061364;28;20452;-80
2022/02/22 07:19:24;;;;;;;2.60;1.50;;;25.30;56.40;;;;;;5060469;28;20441;-80
2022/02/22 07:21:51;;;;;;;3.77;1.53;;;25.20;56.30;;;;;;5061266;28;20449;-80
2022/02/22 07:24:17;;;;;;;1.53;1.30;;;25.30;56.30;;;;;;5057540;28;20532;-80
2022/02/22 07:26:44;;;;;;;3.33;1.90;;;25.30;56.30;;;;;;5057401;28;20532;-80
2022/02/22 07:29:11;;;;;;;1.73;1.43;;;25.30;56.90;;;;;;5061516;28;20492;-81
2022/02/22 07:31:38;;;;;;;3.30;1.60;;;25.30;56.30;;;;;;5065635;28;20446;-83
2022/02/22 07:34:06;;;;;;;2.70;1.47;;;25.30;56.20;;;;;;5065470;28;20439;-80
2022/02/22 07:36:33;;;;;;;3.50;1.90;;;25.30;56.20;;;;;;5063834;28;20528;-80
2022/02/22 07:38:59;;;;;;;2.87;1.60;;;25.30;56.20;;;;;;5064813;28;20456;-93
2022/02/22 07:41:26;;;;;;;1.93;1.47;;;25.30;56.20;;;;;;5060799;28;20448;-81
2022/02/22 07:43:53;;;;;;;1.90;1.63;;;25.30;56.70;;;;;;5064307;28;20450;-82
2022/02/22 07:46:20;;;;;;;2.90;1.70;;;25.30;56.10;;;;;;5061565;28;20429;-80
2022/02/22 07:48:48;;;;;;;2.13;1.43;;;25.30;56.20;;;;;;5064134;28;20482;-80
2022/02/22 07:51:18;;;;;;;1.83;1.50;;;25.30;56.10;;;;;;5063017;28;20450;-80
2022/02/22 07:53:45;;;;;;;2.80;2.10;;;25.30;56.20;;;;;;5063579;28;20832;-80
2022/02/22 07:56:12;;;;;;;2.17;1.70;;;25.30;56.10;;;;;;5066416;28;20444;-80
2022/02/22 07:58:39;;;;;;;3.30;1.80;;;25.30;56.20;;;;;;5069585;28;20445;-81
2022/02/22 08:01:07;;;;;;;5.27;1.80;;;25.30;56.10;;;;;;5066190;28;20450;-82
2022/02/22 08:03:34;;;;;;;4.70;1.93;;;25.30;56.10;;;;;;5062086;28;20438;-80
2022/02/22 08:06:01;;;;;;;3.03;2.00;;;25.30;56.20;;;;;;5065457;28;20525;-80
2022/02/22 08:08:29;;;;;;;4.67;2.40;;;25.30;56.10;;;;;;5064292;28;20414;-80
2022/02/22 08:10:56;;;;;;;5.27;1.90;;;25.40;56.00;;;;;;5062735;28;20491;-80
2022/02/22 08:13:22;;;;;;;6.47;2.60;;;25.50;55.90;;;;;;5065264;28;20452;-80
2022/02/22 08:15:49;;;;;;;3.37;2.00;;;25.60;55.80;;;;;;5064397;28;20781;-80
2022/02/22 08:18:16;;;;;;;3.40;1.90;;;25.60;55.80;;;;;;5061806;28;20432;-80
2022/02/22 08:20:43;;;;;;;4.17;1.87;;;25.60;55.80;;;;;;5061362;28;20457;-80
2022/02/22 08:23:10;;;;;;;6.30;2.17;;;25.60;55.80;;;;;;5060700;28;20473;-81
2022/02/22 08:25:38;;;;;;;4.53;2.10;;;25.50;55.90;;;;;;5066351;28;20446;-80
2022/02/22 08:28:10;;;;;;;3.20;2.17;;;25.50;55.80;;;;;;5064275;28;20422;-80
2022/02/22 08:30:38;;;;;;;11.53;2.27;;;25.50;55.80;;;;;;5062848;28;20525;-80
2022/02/22 08:33:06;;;;;;;4.67;2.00;;;25.50;55.80;;;;;;5064630;28;20426;-80
2022/02/22 08:35:33;;;;;;;4.10;2.20;;;25.50;55.90;;;;;;5062032;28;20450;-80
2022/02/22 08:38:00;;;;;;;10.27;2.40;;;25.50;55.90;;;;;;5066510;28;20468;-82
2022/02/22 08:40:27;;;;;;;6.63;1.80;;;25.50;55.90;;;;;;5065654;28;20818;-80
2022/02/22 08:42:55;;;;;;;5.73;2.30;;;25.50;55.90;;;;;;5065515;28;20453;-80
2022/02/22 08:45:24;;;;;;;5.77;2.40;;;25.50;55.90;;;;;;5063061;28;20445;-81
2022/02/22 08:47:51;;;;;;;5.63;2.00;;;25.60;56.00;;;;;;5061877;28;20422;-80
2022/02/22 08:50:18;;;;;;;4.97;2.00;;;25.60;56.00;;;;;;5064307;28;20490;-79
2022/02/22 08:52:45;;;;;;;5.10;2.87;;;25.60;56.00;;;;;;5081004;22;20487;-80
2022/02/22 08:55:11;;;;;;;4.60;2.53;;;25.70;56.10;;;;;;5102425;28;20465;-80
2022/02/22 08:57:38;;;;;;;7.20;2.33;;;25.80;55.80;;;;;;5105533;28;20451;-80
2022/02/22 09:00:10;;;;;;;5.23;2.60;;;25.90;55.90;;;;;;5086288;28;20528;-80
2022/02/22 09:02:37;;;;;;;9.03;3.27;;;26.00;55.70;;;;;;5080085;28;20449;-80
2022/02/22 09:05:05;;;;;;;5.90;3.30;;;26.20;55.40;;;;;;5080990;28;20417;-80
2022/02/22 09:07:31;;;;;;;10.57;3.13;;;26.30;55.20;;;;;;5082246;28;20527;-81
2022/02/22 09:09:58;;;;;;;18.40;2.53;;;26.40;55.10;;;;;;5082794;28;20488;-80
2022/02/22 09:12:26;;;;;;;6.10;2.50;;;26.50;54.90;;;;;;5080593;28;20441;-96
2022/02/22 09:14:53;;;;;;;5.00;2.70;;;26.50;54.90;;;;;;5084811;28;20437;-80
2022/02/22 09:17:22;;;;;;;6.60;2.10;;;26.50;54.90;;;;;;5082517;28;20448;-86
2022/02/22 09:19:48;;;;;;;3.27;2.07;;;26.50;54.90;;;;;;5084847;28;20924;-80
2022/02/22 09:22:15;;;;;;;6.90;3.10;;;26.50;55.00;;;;;;5082894;28;20452;-91
2022/02/22 09:24:42;;;;;;;8.10;2.47;;;26.50;55.00;;;;;;5083698;28;20441;-81
2022/02/22 09:27:09;;;;;;;9.70;2.50;;;26.50;55.10;;;;;;5082541;28;20453;-80
2022/02/22 09:29:35;;;;;;;6.07;2.83;;;26.40;55.10;;;;;;5083954;28;20487;-96
2022/02/22 09:32:02;;;;;;;6.50;2.07;;;26.40;55.20;;;;;;5082734;28;20445;-91
2022/02/22 09:34:31;;;;;;;9.40;2.50;;;26.40;55.20;;;;;;5082572;28;20489;-80
2022/02/22 09:37:02;;;;;;;5.47;2.77;;;26.40;55.30;;;;;;5081283;28;20502;-85
2022/02/22 09:39:29;;;;;;;4.57;2.07;;;26.40;55.40;;;;;;5080093;28;20968;-80
2022/02/22 09:41:56;;;;;;;7.13;2.30;;;26.30;55.40;;;;;;5082040;28;20446;-96
2022/02/22 09:44:22;;;;;;;11.40;2.93;;;26.30;55.50;;;;;;5082193;28;20441;-96
2022/02/22 09:46:51;;;;;;;5.40;2.00;;;26.30;55.50;;;;;;5081337;28;20441;-80
2022/02/22 09:49:18;;;;;;;5.07;1.80;;;26.30;55.50;;;;;;5082909;28;20598;-96
2022/02/22 09:51:46;;;;;;;6.57;2.50;;;26.30;55.40;;;;;;5083839;28;20540;-80
2022/02/22 09:54:13;;;;;;;5.00;1.77;;;26.30;55.50;;;;;;5081982;28;20831;-80
2022/02/22 09:56:44;;;;;;;4.40;2.50;;;26.30;55.50;;;;;;5084087;28;20475;-80
2022/02/22 09:59:11;;;;;;;10.97;2.63;;;26.30;55.50;;;;;;5073736;28;20551;-96
2022/02/22 10:01:41;;;;;;;6.77;2.50;;;26.20;55.40;;;;;;5073934;28;20800;-82
2022/02/22 10:04:08;;;;;;;12.63;2.70;;;26.20;55.60;;;;;;5074218;28;20495;-80
2022/02/22 10:06:35;;;;;;;3.10;2.07;;;26.30;55.60;;;;;;5074105;28;20436;-96
2022/02/22 10:09:05;;;;;;;7.00;2.60;;;26.20;55.60;;;;;;5073957;28;20447;-80
2022/02/22 10:11:34;;;;;;;4.77;2.43;;;26.20;55.50;;;;;;5074205;28;20441;-80
2022/02/22 10:14:02;;;;;;;6.03;2.30;;;26.20;55.50;;;;;;5074014;28;20798;-81
2022/02/22 10:16:39;;;;;;;7.53;2.20;;;26.30;55.50;;;;;;5074034;28;20428;-96
2022/02/22 10:19:06;;;;;;;9.23;2.70;;;26.30;55.40;;;;;;5073897;28;20445;-80
2022/02/22 10:21:42;;;;;;;4.03;1.90;;;26.30;55.40;;;;;;5073069;28;20458;-93
2022/02/22 10:24:10;;;;;;;5.10;2.13;;;26.30;55.40;;;;;;5072934;28;20984;-82
2022/02/22 10:26:37;;;;;;;6.80;2.50;;;26.30;55.40;;;;;;5073124;28;20448;-80
2022/02/22 10:29:13;;;;;;;9.00;2.80;;;26.30;55.40;;;;;;5073037;28;20964;-80
2022/02/22 10:31:41;;;;;;;5.20;2.27;;;26.30;55.40;;;;;;5073546;28;20455;-96
2022/02/22 10:34:08;;;;;;;5.23;2.50;;;26.30;55.40;;;;;;5073178;28;20451;-83
2022/02/22 10:36:37;;;;;;;3.60;2.40;;;26.30;55.40;;;;;;5073697;28;20449;-96
2022/02/22 10:39:05;;;;;;;4.00;2.27;;;26.30;55.40;;;;;;5073231;28;20997;-80
2022/02/22 10:41:38;;;;;;;7.30;2.53;;;26.30;55.40;;;;;;5072798;28;20441;-83
2022/02/22 10:44:06;;;;;;;4.77;2.40;;;26.30;55.40;;;;;;5073346;28;20441;-81
2022/02/22 10:46:35;;;;;;;5.23;2.10;;;26.40;55.50;;;;;;5073530;28;20441;-80
2022/02/22 10:49:05;;;;;;;3.73;2.13;;;26.30;55.50;;;;;;5073542;28;20471;-91
2022/02/22 10:51:35;;;;;;;9.60;3.23;;;26.30;55.50;;;;;;5073631;28;20791;-80
2022/02/22 10:54:02;;;;;;;6.57;2.17;;;26.30;55.50;;;;;;5073128;28;20472;-80
2022/02/22 10:56:31;;;;;;;6.83;2.40;;;26.30;55.50;;;;;;5072816;28;20437;-79
2022/02/22 10:58:59;;;;;;;5.30;1.87;;;26.30;55.50;;;;;;5072308;28;20663;-93
2022/02/22 11:01:26;;;;;;;4.90;2.10;;;26.30;55.50;;;;;;5072918;28;20440;-80
2022/02/22 11:03:54;;;;;;;5.60;2.80;;;26.30;55.50;;;;;;5073150;28;20443;-94
2022/02/22 11:06:21;;;;;;;3.87;1.70;;;26.30;55.60;;;;;;5072958;28;20436;-83
2022/02/22 11:08:50;;;;;;;5.27;2.37;;;26.30;55.50;;;;;;5073608;28;20421;-80
2022/02/22 11:11:21;;;;;;;3.40;2.30;;;26.30;55.50;;;;;;5077036;28;20484;-80
2022/02/22 11:13:59;;;;;;;5.30;2.40;;;26.30;55.50;;;;;;5076985;28;20441;-82
2022/02/22 11:16:26;;;;;;;5.83;2.50;;;26.40;56.20;;;;;;5077126;28;20440;-95
2022/02/22 11:18:54;;;;;;;4.40;1.97;;;26.30;55.50;;;;;;5076787;28;20443;-80
2022/02/22 11:21:23;;;;;;;4.60;2.27;;;26.30;55.40;;;;;;5076516;28;20447;-81
2022/02/22 11:23:49;;;;;;;2.77;2.23;;;26.30;55.50;;;;;;5076016;28;20955;-95
2022/02/22 11:26:19;;;;;;;4.60;1.90;;;26.30;55.40;;;;;;5075572;28;20448;-79
2022/02/22 11:28:49;;;;;;;6.67;2.30;;;26.30;55.40;;;;;;5076959;28;20462;-79
2022/02/22 11:31:20;;;;;;;5.80;2.10;;;26.30;55.50;;;;;;5076665;28;20480;-94
2022/02/22 11:33:49;;;;;;;6.40;2.60;;;26.30;55.40;;;;;;5076549;28;20432;-80
2022/02/22 11:36:27;;;;;;;4.20;2.17;;;26.30;55.40;;;;;;5076229;28;20436;-79
2022/02/22 11:38:54;;;;;;;3.90;1.83;;;26.30;55.40;;;;;;5075691;28;20965;-79
2022/02/22 11:41:24;;;;;;;2.87;1.77;;;26.30;55.50;;;;;;5076047;28;20783;-81
2022/02/22 11:43:53;;;;;;;3.80;2.10;;;26.30;55.40;;;;;;5075994;28;20444;-80
2022/02/22 11:46:34;;;;;;;3.60;2.33;;;26.30;55.40;;;;;;5076269;28;20939;-94
2022/02/22 11:49:06;;;;;;;3.33;2.00;;;26.30;56.10;;;;;;5076133;28;20441;-80
2022/02/22 11:51:44;;;;;;;4.00;1.73;;;26.30;55.50;;;;;;5075908;28;20492;-92
2022/02/22 11:54:12;;;;;;;5.03;2.13;;;26.30;55.40;;;;;;5076063;28;20468;-79
2022/02/22 11:56:42;;;;;;;3.70;2.27;;;26.20;55.50;;;;;;5076178;28;21003;-79
2022/02/22 11:59:16;;;;;;;2.27;1.60;;;26.20;55.40;;;;;;5076268;28;20464;-79
2022/02/22 12:01:46;;;;;;;2.70;1.80;;;26.30;55.50;;;;;;5075892;28;20440;-79
2022/02/22 12:04:20;;;;;;;2.90;1.97;;;26.30;55.40;;;;;;5075427;28;20445;-80
2022/02/22 12:06:48;;;;;;;4.63;2.33;;;26.30;55.40;;;;;;5075104;28;21049;-80
2022/02/22 12:09:16;;;;;;;3.53;2.80;;;26.30;55.40;;;;;;5075854;28;20440;-80
2022/02/22 12:11:43;;;;;;;3.10;1.53;;;26.30;55.40;;;;;;5075887;28;20809;-79
2022/02/22 12:14:11;;;;;;;3.90;1.90;;;26.30;55.50;;;;;;5075853;28;20498;-93
2022/02/22 12:16:43;;;;;;;3.70;2.43;;;26.30;55.50;;;;;;5075827;28;20444;-79
2022/02/22 12:19:14;;;;;;;5.10;1.90;;;26.30;55.50;;;;;;5075889;28;20462;-87
2022/02/22 12:21:49;;;;;;;3.30;2.10;;;26.30;55.40;;;;;;5075589;28;20445;-92
2022/02/22 12:24:23;;;;;;;3.80;2.20;;;26.30;55.40;;;;;;5075627;28;20448;-93
2022/02/22 12:26:50;;;;;;;4.63;2.43;;;26.30;55.40;;;;;;5075625;28;20456;-80
2022/02/22 12:29:17;;;;;;;2.80;2.10;;;26.30;55.40;;;;;;5075910;28;20461;-94
2022/02/22 12:31:53;;;;;;;4.87;2.37;;;26.20;55.50;;;;;;5084989;28;20485;-78
2022/02/22 12:34:24;;;;;;;5.60;2.57;;;26.30;55.70;;;;;;5075401;28;20857;-79
2022/02/22 12:36:55;;;;;;;2.83;2.00;;;26.30;55.60;;;;;;5075684;28;20447;-79
2022/02/22 12:39:24;;;;;;;5.73;1.93;;;26.30;55.60;;;;;;5075547;28;20436;-79
2022/02/22 12:41:52;;;;;;;3.50;1.90;;;26.30;55.50;;;;;;5075386;28;20448;-79
2022/02/22 12:44:21;;;;;;;3.13;1.90;;;26.30;55.60;;;;;;5075141;28;20432;-79
2022/02/22 12:46:49;;;;;;;2.90;1.97;;;26.30;55.50;;;;;;5075448;28;20440;-79
2022/02/22 12:49:19;;;;;;;2.27;2.03;;;26.30;55.50;;;;;;5075313;28;20523;-94